sensor_id;sensor_type;location;lat;lon;timestamp;P1;durP1;ratioP1;P2;durP2;ratioP2
59998;SDS011;45859;51.378;6.736;2023-11-22T00:00:49;15.00;;;6.83;;
59998;SDS011;45859;51.378;6.736;2023-11-22T00:03:21;13.70;;;6.40;;
59998;SDS011;45859;51.378;6.736;2023-11-22T00:06:07;17.73;;;7.13;;
59998;SDS011;45859;51.378;6.736;2023-11-22T00:08:33;13.43;;;6.53;;
59998;SDS011;45859;51.378;6.736;2023-11-22T00:11:14;15.40;;;7.23;;
59998;SDS011;45859;51.378;6.736;2023-11-22T00:13:40;17.03;;;7.43;;
59998;SDS011;45859;51.378;6.736;2023-11-22T00:16:06;12.63;;;6.67;;
59998;SDS011;45859;51.378;6.736;2023-11-22T00:18:34;15.50;;;7.10;;
59998;SDS011;45859;51.378;6.736;2023-11-22T00:21:21;14.43;;;7.33;;
59998;SDS011;45859;51.378;6.736;2023-11-22T00:23:47;13.27;;;7.00;;
59998;SDS011;45859;51.378;6.736;2023-11-22T00:26:13;12.63;;;6.03;;
59998;SDS011;45859;51.378;6.736;2023-11-22T00:28:40;13.77;;;6.57;;
59998;SDS011;45859;51.378;6.736;2023-11-22T00:31:06;12.70;;;6.87;;
59998;SDS011;45859;51.378;6.736;2023-11-22T00:33:32;16.27;;;7.83;;
59998;SDS011;45859;51.378;6.736;2023-11-22T00:35:59;14.00;;;7.20;;
59998;SDS011;45859;51.378;6.736;2023-11-22T00:38:29;14.53;;;7.20;;
59998;SDS011;45859;51.378;6.736;2023-11-22T00:40:55;17.40;;;7.33;;
59998;SDS011;45859;51.378;6.736;2023-11-22T00:43:21;18.63;;;7.67;;
59998;SDS011;45859;51.378;6.736;2023-11-22T00:45:48;8.40;;;4.53;;
59998;SDS011;45859;51.378;6.736;2023-11-22T00:48:14;14.40;;;6.23;;
59998;SDS011;45859;51.378;6.736;2023-11-22T00:50:40;20.50;;;7.60;;
59998;SDS011;45859;51.378;6.736;2023-11-22T00:53:06;18.07;;;6.93;;
59998;SDS011;45859;51.378;6.736;2023-11-22T00:55:32;14.13;;;6.20;;
59998;SDS011;45859;51.378;6.736;2023-11-22T00:57:59;11.17;;;6.07;;
59998;SDS011;45859;51.378;6.736;2023-11-22T01:02:58;13.63;;;6.77;;
59998;SDS011;45859;51.378;6.736;2023-11-22T01:05:24;15.77;;;8.03;;
59998;SDS011;45859;51.378;6.736;2023-11-22T01:07:50;17.27;;;6.97;;
59998;SDS011;45859;51.378;6.736;2023-11-22T01:10:16;12.27;;;6.23;;
59998;SDS011;45859;51.378;6.736;2023-11-22T01:12:42;17.03;;;6.97;;
59998;SDS011;45859;51.378;6.736;2023-11-22T01:15:09;11.93;;;6.43;;
59998;SDS011;45859;51.378;6.736;2023-11-22T01:17:35;15.93;;;6.07;;
59998;SDS011;45859;51.378;6.736;2023-11-22T01:20:06;12.57;;;6.50;;
59998;SDS011;45859;51.378;6.736;2023-11-22T01:22:34;15.27;;;7.27;;
59998;SDS011;45859;51.378;6.736;2023-11-22T01:25:02;13.53;;;6.90;;
59998;SDS011;45859;51.378;6.736;2023-11-22T01:27:29;14.57;;;5.73;;
59998;SDS011;45859;51.378;6.736;2023-11-22T01:29:55;12.03;;;6.23;;
59998;SDS011;45859;51.378;6.736;2023-11-22T01:32:22;14.70;;;6.97;;
59998;SDS011;45859;51.378;6.736;2023-11-22T01:34:47;10.47;;;5.60;;
59998;SDS011;45859;51.378;6.736;2023-11-22T01:37:14;14.60;;;6.77;;
59998;SDS011;45859;51.378;6.736;2023-11-22T01:39:40;14.70;;;6.93;;
59998;SDS011;45859;51.378;6.736;2023-11-22T01:42:06;14.40;;;6.67;;
59998;SDS011;45859;51.378;6.736;2023-11-22T01:44:33;16.80;;;7.40;;
59998;SDS011;45859;51.378;6.736;2023-11-22T01:46:59;13.23;;;6.50;;
59998;SDS011;45859;51.378;6.736;2023-11-22T01:49:25;16.93;;;7.23;;
59998;SDS011;45859;51.378;6.736;2023-11-22T01:51:52;13.73;;;6.53;;
59998;SDS011;45859;51.378;6.736;2023-11-22T01:54:18;17.03;;;7.40;;
59998;SDS011;45859;51.378;6.736;2023-11-22T01:56:44;15.17;;;7.90;;
59998;SDS011;45859;51.378;6.736;2023-11-22T01:59:10;19.37;;;7.97;;
59998;SDS011;45859;51.378;6.736;2023-11-22T02:01:36;14.50;;;7.07;;
59998;SDS011;45859;51.378;6.736;2023-11-22T02:04:02;16.00;;;6.87;;
59998;SDS011;45859;51.378;6.736;2023-11-22T02:06:28;16.37;;;7.00;;
59998;SDS011;45859;51.378;6.736;2023-11-22T02:08:56;11.40;;;5.50;;
59998;SDS011;45859;51.378;6.736;2023-11-22T02:11:22;13.93;;;6.37;;
59998;SDS011;45859;51.378;6.736;2023-11-22T02:13:49;13.90;;;6.97;;
59998;SDS011;45859;51.378;6.736;2023-11-22T02:16:16;14.87;;;6.57;;
59998;SDS011;45859;51.378;6.736;2023-11-22T02:18:46;12.50;;;5.17;;
59998;SDS011;45859;51.378;6.736;2023-11-22T02:21:13;13.03;;;5.77;;
59998;SDS011;45859;51.378;6.736;2023-11-22T02:23:40;14.73;;;6.57;;
59998;SDS011;45859;51.378;6.736;2023-11-22T02:26:07;14.97;;;6.63;;
59998;SDS011;45859;51.378;6.736;2023-11-22T02:28:33;15.73;;;6.37;;
59998;SDS011;45859;51.378;6.736;2023-11-22T02:31:08;11.30;;;5.87;;
59998;SDS011;45859;51.378;6.736;2023-11-22T02:33:56;11.73;;;5.87;;
59998;SDS011;45859;51.378;6.736;2023-11-22T02:39:19;9.27;;;5.33;;
59998;SDS011;45859;51.378;6.736;2023-11-22T02:42:08;12.20;;;5.30;;
59998;SDS011;45859;51.378;6.736;2023-11-22T02:44:43;11.17;;;6.10;;
59998;SDS011;45859;51.378;6.736;2023-11-22T02:47:09;12.83;;;5.93;;
59998;SDS011;45859;51.378;6.736;2023-11-22T02:52:27;18.63;;;6.63;;
59998;SDS011;45859;51.378;6.736;2023-11-22T02:55:14;16.40;;;5.97;;
59998;SDS011;45859;51.378;6.736;2023-11-22T02:58:10;16.17;;;5.67;;
59998;SDS011;45859;51.378;6.736;2023-11-22T03:00:40;15.52;;;7.32;;
59998;SDS011;45859;51.378;6.736;2023-11-22T03:03:13;13.87;;;5.90;;
59998;SDS011;45859;51.378;6.736;2023-11-22T03:05:57;12.07;;;5.73;;
59998;SDS011;45859;51.378;6.736;2023-11-22T03:08:32;8.90;;;5.03;;
59998;SDS011;45859;51.378;6.736;2023-11-22T03:11:14;12.27;;;7.07;;
59998;SDS011;45859;51.378;6.736;2023-11-22T03:13:43;11.87;;;6.67;;
59998;SDS011;45859;51.378;6.736;2023-11-22T03:16:15;16.07;;;7.17;;
59998;SDS011;45859;51.378;6.736;2023-11-22T03:18:42;14.87;;;6.57;;
59998;SDS011;45859;51.378;6.736;2023-11-22T03:21:08;13.87;;;6.53;;
59998;SDS011;45859;51.378;6.736;2023-11-22T03:23:47;18.27;;;6.90;;
59998;SDS011;45859;51.378;6.736;2023-11-22T03:26:34;15.40;;;7.00;;
59998;SDS011;45859;51.378;6.736;2023-11-22T03:29:09;15.90;;;5.80;;
59998;SDS011;45859;51.378;6.736;2023-11-22T03:31:41;19.03;;;7.63;;
59998;SDS011;45859;51.378;6.736;2023-11-22T03:34:08;21.47;;;8.50;;
59998;SDS011;45859;51.378;6.736;2023-11-22T03:36:34;16.50;;;7.10;;
59998;SDS011;45859;51.378;6.736;2023-11-22T03:39:00;22.07;;;9.10;;
59998;SDS011;45859;51.378;6.736;2023-11-22T03:41:30;17.90;;;8.73;;
59998;SDS011;45859;51.378;6.736;2023-11-22T03:44:11;22.20;;;7.47;;
59998;SDS011;45859;51.378;6.736;2023-11-22T03:46:55;17.97;;;8.37;;
59998;SDS011;45859;51.378;6.736;2023-11-22T03:49:40;12.87;;;6.10;;
59998;SDS011;45859;51.378;6.736;2023-11-22T03:52:24;12.63;;;7.23;;
59998;SDS011;45859;51.378;6.736;2023-11-22T03:55:06;14.50;;;6.43;;
59998;SDS011;45859;51.378;6.736;2023-11-22T03:57:32;16.07;;;7.60;;
59998;SDS011;45859;51.378;6.736;2023-11-22T04:00:07;18.03;;;7.47;;
59998;SDS011;45859;51.378;6.736;2023-11-22T04:03:07;12.87;;;6.03;;
59998;SDS011;45859;51.378;6.736;2023-11-22T04:05:43;17.47;;;7.17;;
59998;SDS011;45859;51.378;6.736;2023-11-22T04:08:18;20.43;;;8.20;;
59998;SDS011;45859;51.378;6.736;2023-11-22T04:13:36;15.00;;;7.23;;
59998;SDS011;45859;51.378;6.736;2023-11-22T04:16:39;17.60;;;8.27;;
59998;SDS011;45859;51.378;6.736;2023-11-22T04:19:09;14.17;;;6.83;;
59998;SDS011;45859;51.378;6.736;2023-11-22T04:24:35;21.20;;;8.70;;
59998;SDS011;45859;51.378;6.736;2023-11-22T04:27:15;18.60;;;7.30;;
59998;SDS011;45859;51.378;6.736;2023-11-22T04:30:00;16.10;;;7.87;;
59998;SDS011;45859;51.378;6.736;2023-11-22T04:32:29;19.27;;;7.10;;
59998;SDS011;45859;51.378;6.736;2023-11-22T04:34:58;14.80;;;7.37;;
59998;SDS011;45859;51.378;6.736;2023-11-22T04:37:37;17.97;;;6.87;;
59998;SDS011;45859;51.378;6.736;2023-11-22T04:40:06;14.83;;;7.10;;
59998;SDS011;45859;51.378;6.736;2023-11-22T04:43:13;17.70;;;6.67;;
59998;SDS011;45859;51.378;6.736;2023-11-22T04:45:57;21.67;;;7.90;;
59998;SDS011;45859;51.378;6.736;2023-11-22T04:48:38;17.70;;;7.70;;
59998;SDS011;45859;51.378;6.736;2023-11-22T04:51:34;16.38;;;6.80;;
59998;SDS011;45859;51.378;6.736;2023-11-22T04:56:53;19.23;;;7.33;;
59998;SDS011;45859;51.378;6.736;2023-11-22T04:59:38;14.37;;;6.33;;
59998;SDS011;45859;51.378;6.736;2023-11-22T05:02:25;17.80;;;6.03;;
59998;SDS011;45859;51.378;6.736;2023-11-22T05:05:10;15.65;;;6.22;;
59998;SDS011;45859;51.378;6.736;2023-11-22T05:07:36;14.70;;;7.00;;
59998;SDS011;45859;51.378;6.736;2023-11-22T05:13:00;18.30;;;6.27;;
59998;SDS011;45859;51.378;6.736;2023-11-22T05:15:44;18.60;;;6.73;;
59998;SDS011;45859;51.378;6.736;2023-11-22T05:21:09;12.77;;;7.00;;
59998;SDS011;45859;51.378;6.736;2023-11-22T05:23:50;19.27;;;6.53;;
59998;SDS011;45859;51.378;6.736;2023-11-22T05:26:22;16.33;;;7.23;;
59998;SDS011;45859;51.378;6.736;2023-11-22T05:28:48;17.93;;;6.97;;
59998;SDS011;45859;51.378;6.736;2023-11-22T05:31:20;15.90;;;6.20;;
59998;SDS011;45859;51.378;6.736;2023-11-22T05:33:58;19.60;;;7.27;;
59998;SDS011;45859;51.378;6.736;2023-11-22T05:36:38;14.32;;;6.22;;
59998;SDS011;45859;51.378;6.736;2023-11-22T05:39:08;13.80;;;6.63;;
59998;SDS011;45859;51.378;6.736;2023-11-22T05:41:35;16.77;;;6.47;;
59998;SDS011;45859;51.378;6.736;2023-11-22T05:44:04;15.60;;;5.50;;
59998;SDS011;45859;51.378;6.736;2023-11-22T05:46:31;18.70;;;7.25;;
59998;SDS011;45859;51.378;6.736;2023-11-22T05:49:00;17.17;;;6.20;;
59998;SDS011;45859;51.378;6.736;2023-11-22T05:51:29;16.03;;;7.07;;
59998;SDS011;45859;51.378;6.736;2023-11-22T05:54:19;15.17;;;6.87;;
59998;SDS011;45859;51.378;6.736;2023-11-22T05:57:15;11.97;;;6.13;;
59998;SDS011;45859;51.378;6.736;2023-11-22T05:59:54;13.00;;;7.13;;
59998;SDS011;45859;51.378;6.736;2023-11-22T06:02:28;15.07;;;6.13;;
59998;SDS011;45859;51.378;6.736;2023-11-22T06:04:58;15.57;;;6.90;;
59998;SDS011;45859;51.378;6.736;2023-11-22T06:07:30;18.13;;;7.53;;
59998;SDS011;45859;51.378;6.736;2023-11-22T06:10:00;18.93;;;6.20;;
59998;SDS011;45859;51.378;6.736;2023-11-22T06:12:33;18.53;;;5.80;;
59998;SDS011;45859;51.378;6.736;2023-11-22T06:14:59;17.50;;;7.60;;
59998;SDS011;45859;51.378;6.736;2023-11-22T06:17:34;13.87;;;5.57;;
59998;SDS011;45859;51.378;6.736;2023-11-22T06:20:00;17.30;;;6.33;;
59998;SDS011;45859;51.378;6.736;2023-11-22T06:22:28;15.47;;;6.17;;
59998;SDS011;45859;51.378;6.736;2023-11-22T06:25:00;13.00;;;6.17;;
59998;SDS011;45859;51.378;6.736;2023-11-22T06:27:26;14.50;;;6.50;;
59998;SDS011;45859;51.378;6.736;2023-11-22T06:32:51;18.93;;;6.77;;
59998;SDS011;45859;51.378;6.736;2023-11-22T06:35:19;15.20;;;6.60;;
59998;SDS011;45859;51.378;6.736;2023-11-22T06:37:45;16.03;;;6.73;;
59998;SDS011;45859;51.378;6.736;2023-11-22T06:40:15;14.43;;;5.90;;
59998;SDS011;45859;51.378;6.736;2023-11-22T06:42:42;12.13;;;5.75;;
59998;SDS011;45859;51.378;6.736;2023-11-22T06:45:11;17.40;;;7.30;;
59998;SDS011;45859;51.378;6.736;2023-11-22T06:47:41;18.05;;;5.57;;
59998;SDS011;45859;51.378;6.736;2023-11-22T06:50:25;16.03;;;6.13;;
59998;SDS011;45859;51.378;6.736;2023-11-22T06:53:06;14.80;;;6.63;;
59998;SDS011;45859;51.378;6.736;2023-11-22T06:55:35;15.47;;;5.33;;
59998;SDS011;45859;51.378;6.736;2023-11-22T06:58:16;11.33;;;5.57;;
59998;SDS011;45859;51.378;6.736;2023-11-22T07:00:43;15.40;;;6.13;;
59998;SDS011;45859;51.378;6.736;2023-11-22T07:03:17;15.87;;;6.83;;
59998;SDS011;45859;51.378;6.736;2023-11-22T07:05:44;12.57;;;5.50;;
59998;SDS011;45859;51.378;6.736;2023-11-22T07:08:10;10.80;;;5.37;;
59998;SDS011;45859;51.378;6.736;2023-11-22T07:10:36;18.27;;;7.50;;
59998;SDS011;45859;51.378;6.736;2023-11-22T07:13:03;14.93;;;5.17;;
59998;SDS011;45859;51.378;6.736;2023-11-22T07:15:33;11.67;;;5.73;;
59998;SDS011;45859;51.378;6.736;2023-11-22T07:18:02;16.27;;;6.33;;
59998;SDS011;45859;51.378;6.736;2023-11-22T07:20:28;14.00;;;5.73;;
59998;SDS011;45859;51.378;6.736;2023-11-22T07:22:54;13.40;;;6.00;;
59998;SDS011;45859;51.378;6.736;2023-11-22T07:25:35;13.80;;;5.97;;
59998;SDS011;45859;51.378;6.736;2023-11-22T07:28:01;16.33;;;6.23;;
59998;SDS011;45859;51.378;6.736;2023-11-22T07:30:27;14.70;;;6.10;;
59998;SDS011;45859;51.378;6.736;2023-11-22T07:32:55;11.20;;;5.10;;
59998;SDS011;45859;51.378;6.736;2023-11-22T07:35:24;13.50;;;5.60;;
59998;SDS011;45859;51.378;6.736;2023-11-22T07:37:58;11.93;;;5.80;;
59998;SDS011;45859;51.378;6.736;2023-11-22T07:40:24;15.77;;;5.20;;
59998;SDS011;45859;51.378;6.736;2023-11-22T07:42:54;12.60;;;5.78;;
59998;SDS011;45859;51.378;6.736;2023-11-22T07:45:23;10.80;;;5.77;;
59998;SDS011;45859;51.378;6.736;2023-11-22T07:47:54;12.40;;;5.67;;
59998;SDS011;45859;51.378;6.736;2023-11-22T07:50:24;15.73;;;6.85;;
59998;SDS011;45859;51.378;6.736;2023-11-22T07:52:50;11.97;;;5.33;;
59998;SDS011;45859;51.378;6.736;2023-11-22T07:55:17;17.27;;;6.13;;
59998;SDS011;45859;51.378;6.736;2023-11-22T07:58:01;19.83;;;6.60;;
59998;SDS011;45859;51.378;6.736;2023-11-22T08:00:26;13.63;;;5.93;;
59998;SDS011;45859;51.378;6.736;2023-11-22T08:03:13;13.83;;;5.83;;
59998;SDS011;45859;51.378;6.736;2023-11-22T08:05:53;12.07;;;5.05;;
59998;SDS011;45859;51.378;6.736;2023-11-22T08:08:33;10.70;;;4.97;;
59998;SDS011;45859;51.378;6.736;2023-11-22T08:11:09;14.80;;;5.93;;
59998;SDS011;45859;51.378;6.736;2023-11-22T08:13:42;13.33;;;6.00;;
59998;SDS011;45859;51.378;6.736;2023-11-22T08:16:10;13.57;;;6.13;;
59998;SDS011;45859;51.378;6.736;2023-11-22T08:18:46;18.00;;;6.85;;
59998;SDS011;45859;51.378;6.736;2023-11-22T08:21:33;17.60;;;6.20;;
59998;SDS011;45859;51.378;6.736;2023-11-22T08:23:59;14.00;;;5.70;;
59998;SDS011;45859;51.378;6.736;2023-11-22T08:26:31;12.43;;;6.93;;
59998;SDS011;45859;51.378;6.736;2023-11-22T08:29:00;13.50;;;5.50;;
59998;SDS011;45859;51.378;6.736;2023-11-22T08:31:32;10.73;;;5.00;;
59998;SDS011;45859;51.378;6.736;2023-11-22T08:33:59;11.17;;;6.07;;
59998;SDS011;45859;51.378;6.736;2023-11-22T08:36:25;10.40;;;4.93;;
59998;SDS011;45859;51.378;6.736;2023-11-22T08:38:53;7.80;;;4.40;;
59998;SDS011;45859;51.378;6.736;2023-11-22T08:41:20;12.47;;;4.87;;
59998;SDS011;45859;51.378;6.736;2023-11-22T08:43:48;9.57;;;4.40;;
59998;SDS011;45859;51.378;6.736;2023-11-22T08:46:17;9.57;;;3.60;;
59998;SDS011;45859;51.378;6.736;2023-11-22T08:48:43;11.47;;;5.13;;
59998;SDS011;45859;51.378;6.736;2023-11-22T08:51:09;9.03;;;3.97;;
59998;SDS011;45859;51.378;6.736;2023-11-22T08:53:35;9.47;;;4.50;;
59998;SDS011;45859;51.378;6.736;2023-11-22T08:56:05;9.43;;;4.53;;
59998;SDS011;45859;51.378;6.736;2023-11-22T08:58:40;10.57;;;4.60;;
59998;SDS011;45859;51.378;6.736;2023-11-22T09:01:08;7.80;;;4.07;;
59998;SDS011;45859;51.378;6.736;2023-11-22T09:03:47;9.00;;;3.47;;
59998;SDS011;45859;51.378;6.736;2023-11-22T09:06:41;9.57;;;4.65;;
59998;SDS011;45859;51.378;6.736;2023-11-22T09:09:07;10.43;;;4.13;;
59998;SDS011;45859;51.378;6.736;2023-11-22T09:14:18;7.93;;;3.80;;
59998;SDS011;45859;51.378;6.736;2023-11-22T09:16:49;3.37;;;1.83;;
59998;SDS011;45859;51.378;6.736;2023-11-22T09:19:22;10.10;;;3.93;;
59998;SDS011;45859;51.378;6.736;2023-11-22T09:21:49;5.73;;;3.37;;
59998;SDS011;45859;51.378;6.736;2023-11-22T09:24:27;5.37;;;3.30;;
59998;SDS011;45859;51.378;6.736;2023-11-22T09:27:11;9.80;;;3.80;;
59998;SDS011;45859;51.378;6.736;2023-11-22T09:29:44;7.93;;;3.80;;
59998;SDS011;45859;51.378;6.736;2023-11-22T09:32:11;6.30;;;3.10;;
59998;SDS011;45859;51.378;6.736;2023-11-22T09:34:40;7.07;;;3.88;;
59998;SDS011;45859;51.378;6.736;2023-11-22T09:37:09;6.73;;;2.90;;
59998;SDS011;45859;51.378;6.736;2023-11-22T09:39:38;14.33;;;4.00;;
59998;SDS011;45859;51.378;6.736;2023-11-22T09:42:11;7.00;;;3.60;;
59998;SDS011;45859;51.378;6.736;2023-11-22T09:44:52;6.40;;;3.03;;
59998;SDS011;45859;51.378;6.736;2023-11-22T09:47:18;5.03;;;3.10;;
59998;SDS011;45859;51.378;6.736;2023-11-22T09:49:47;6.87;;;3.70;;
59998;SDS011;45859;51.378;6.736;2023-11-22T09:52:17;5.97;;;3.07;;
59998;SDS011;45859;51.378;6.736;2023-11-22T09:54:47;5.93;;;2.22;;
59998;SDS011;45859;51.378;6.736;2023-11-22T09:57:14;4.60;;;2.93;;
59998;SDS011;45859;51.378;6.736;2023-11-22T09:59:48;3.47;;;1.60;;
59998;SDS011;45859;51.378;6.736;2023-11-22T10:02:17;6.37;;;2.80;;
59998;SDS011;45859;51.378;6.736;2023-11-22T10:04:48;3.77;;;2.17;;
59998;SDS011;45859;51.378;6.736;2023-11-22T10:07:14;4.30;;;2.27;;
59998;SDS011;45859;51.378;6.736;2023-11-22T10:09:40;5.43;;;2.63;;
59998;SDS011;45859;51.378;6.736;2023-11-22T10:12:06;5.80;;;2.77;;
59998;SDS011;45859;51.378;6.736;2023-11-22T10:14:36;4.83;;;1.97;;
59998;SDS011;45859;51.378;6.736;2023-11-22T10:17:03;3.37;;;2.33;;
59998;SDS011;45859;51.378;6.736;2023-11-22T10:19:30;3.77;;;2.03;;
59998;SDS011;45859;51.378;6.736;2023-11-22T10:22:12;5.47;;;2.60;;
59998;SDS011;45859;51.378;6.736;2023-11-22T10:24:42;5.37;;;2.93;;
59998;SDS011;45859;51.378;6.736;2023-11-22T10:27:12;6.87;;;2.87;;
59998;SDS011;45859;51.378;6.736;2023-11-22T10:29:38;4.73;;;2.40;;
59998;SDS011;45859;51.378;6.736;2023-11-22T10:32:10;4.43;;;2.33;;
59998;SDS011;45859;51.378;6.736;2023-11-22T10:34:40;7.10;;;2.50;;
59998;SDS011;45859;51.378;6.736;2023-11-22T10:37:09;5.97;;;2.53;;
59998;SDS011;45859;51.378;6.736;2023-11-22T10:39:35;5.70;;;2.73;;
59998;SDS011;45859;51.378;6.736;2023-11-22T10:42:02;5.83;;;2.77;;
59998;SDS011;45859;51.378;6.736;2023-11-22T10:44:34;5.73;;;2.23;;
59998;SDS011;45859;51.378;6.736;2023-11-22T10:47:03;4.77;;;1.97;;
59998;SDS011;45859;51.378;6.736;2023-11-22T10:49:33;5.83;;;2.00;;
59998;SDS011;45859;51.378;6.736;2023-11-22T10:52:05;4.23;;;2.17;;
59998;SDS011;45859;51.378;6.736;2023-11-22T10:54:44;4.45;;;1.65;;
59998;SDS011;45859;51.378;6.736;2023-11-22T10:57:14;3.13;;;1.80;;
59998;SDS011;45859;51.378;6.736;2023-11-22T10:59:41;3.63;;;1.70;;
59998;SDS011;45859;51.378;6.736;2023-11-22T11:02:11;1.63;;;1.00;;
59998;SDS011;45859;51.378;6.736;2023-11-22T11:04:55;2.17;;;1.47;;
59998;SDS011;45859;51.378;6.736;2023-11-22T11:07:27;3.40;;;1.40;;
59998;SDS011;45859;51.378;6.736;2023-11-22T11:09:56;3.10;;;1.70;;
59998;SDS011;45859;51.378;6.736;2023-11-22T11:12:23;2.87;;;1.53;;
59998;SDS011;45859;51.378;6.736;2023-11-22T11:14:50;2.60;;;1.47;;
59998;SDS011;45859;51.378;6.736;2023-11-22T11:17:19;3.20;;;1.80;;
59998;SDS011;45859;51.378;6.736;2023-11-22T11:19:45;3.13;;;1.67;;
59998;SDS011;45859;51.378;6.736;2023-11-22T11:22:11;3.20;;;1.50;;
59998;SDS011;45859;51.378;6.736;2023-11-22T11:24:39;3.00;;;1.73;;
59998;SDS011;45859;51.378;6.736;2023-11-22T11:27:06;1.50;;;0.87;;
59998;SDS011;45859;51.378;6.736;2023-11-22T11:29:33;4.80;;;1.20;;
59998;SDS011;45859;51.378;6.736;2023-11-22T11:32:04;2.33;;;1.50;;
59998;SDS011;45859;51.378;6.736;2023-11-22T11:37:39;3.33;;;1.40;;
59998;SDS011;45859;51.378;6.736;2023-11-22T11:46:29;2.07;;;1.10;;
59998;SDS011;45859;51.378;6.736;2023-11-22T11:49:11;3.93;;;1.47;;
59998;SDS011;45859;51.378;6.736;2023-11-22T11:51:53;3.07;;;1.60;;
59998;SDS011;45859;51.378;6.736;2023-11-22T11:54:31;1.77;;;1.47;;
59998;SDS011;45859;51.378;6.736;2023-11-22T11:57:03;2.77;;;1.00;;
59998;SDS011;45859;51.378;6.736;2023-11-22T11:59:37;2.40;;;1.37;;
59998;SDS011;45859;51.378;6.736;2023-11-22T12:02:29;2.17;;;1.03;;
59998;SDS011;45859;51.378;6.736;2023-11-22T12:04:56;2.43;;;0.87;;
59998;SDS011;45859;51.378;6.736;2023-11-22T12:07:31;2.37;;;1.33;;
59998;SDS011;45859;51.378;6.736;2023-11-22T12:10:03;3.27;;;2.70;;
59998;SDS011;45859;51.378;6.736;2023-11-22T12:12:36;3.13;;;1.20;;
59998;SDS011;45859;51.378;6.736;2023-11-22T12:15:02;2.77;;;0.80;;
59998;SDS011;45859;51.378;6.736;2023-11-22T12:17:39;3.33;;;0.97;;
59998;SDS011;45859;51.378;6.736;2023-11-22T12:20:09;1.47;;;0.80;;
59998;SDS011;45859;51.378;6.736;2023-11-22T12:22:36;0.73;;;0.60;;
59998;SDS011;45859;51.378;6.736;2023-11-22T12:25:06;4.35;;;0.88;;
59998;SDS011;45859;51.378;6.736;2023-11-22T12:27:35;0.37;;;0.30;;
59998;SDS011;45859;51.378;6.736;2023-11-22T12:30:33;1.03;;;0.50;;
59998;SDS011;45859;51.378;6.736;2023-11-22T12:33:19;3.13;;;0.90;;
59998;SDS011;45859;51.378;6.736;2023-11-22T12:36:19;0.87;;;0.60;;
59998;SDS011;45859;51.378;6.736;2023-11-22T12:38:54;1.90;;;0.77;;
59998;SDS011;45859;51.378;6.736;2023-11-22T12:41:33;2.23;;;0.83;;
59998;SDS011;45859;51.378;6.736;2023-11-22T12:44:03;1.87;;;0.83;;
59998;SDS011;45859;51.378;6.736;2023-11-22T12:46:52;1.60;;;0.40;;
59998;SDS011;45859;51.378;6.736;2023-11-22T12:49:27;1.40;;;0.80;;
59998;SDS011;45859;51.378;6.736;2023-11-22T12:51:54;0.53;;;0.33;;
59998;SDS011;45859;51.378;6.736;2023-11-22T12:54:22;1.93;;;0.67;;
59998;SDS011;45859;51.378;6.736;2023-11-22T12:57:12;0.80;;;0.50;;
59998;SDS011;45859;51.378;6.736;2023-11-22T12:59:54;0.53;;;0.30;;
59998;SDS011;45859;51.378;6.736;2023-11-22T13:02:48;1.27;;;0.57;;
59998;SDS011;45859;51.378;6.736;2023-11-22T13:05:20;0.40;;;0.30;;
59998;SDS011;45859;51.378;6.736;2023-11-22T13:08:01;1.13;;;0.70;;
59998;SDS011;45859;51.378;6.736;2023-11-22T13:10:36;1.80;;;0.70;;
59998;SDS011;45859;51.378;6.736;2023-11-22T13:13:21;1.03;;;0.40;;
59998;SDS011;45859;51.378;6.736;2023-11-22T13:15:48;0.73;;;0.50;;
59998;SDS011;45859;51.378;6.736;2023-11-22T13:18:17;1.83;;;1.07;;
59998;SDS011;45859;51.378;6.736;2023-11-22T13:20:56;7.63;;;1.00;;
59998;SDS011;45859;51.378;6.736;2023-11-22T13:23:27;1.43;;;0.63;;
59998;SDS011;45859;51.378;6.736;2023-11-22T13:29:00;1.83;;;1.23;;
59998;SDS011;45859;51.378;6.736;2023-11-22T13:31:29;2.23;;;1.00;;
59998;SDS011;45859;51.378;6.736;2023-11-22T13:34:10;3.50;;;1.20;;
59998;SDS011;45859;51.378;6.736;2023-11-22T13:37:00;2.53;;;0.90;;
59998;SDS011;45859;51.378;6.736;2023-11-22T13:39:32;2.53;;;1.10;;
59998;SDS011;45859;51.378;6.736;2023-11-22T13:42:11;2.30;;;1.10;;
59998;SDS011;45859;51.378;6.736;2023-11-22T13:44:47;1.70;;;1.00;;
59998;SDS011;45859;51.378;6.736;2023-11-22T13:47:12;1.27;;;0.83;;
59998;SDS011;45859;51.378;6.736;2023-11-22T13:49:41;1.17;;;0.90;;
59998;SDS011;45859;51.378;6.736;2023-11-22T13:52:28;1.60;;;0.60;;
59998;SDS011;45859;51.378;6.736;2023-11-22T13:54:54;3.70;;;0.87;;
59998;SDS011;45859;51.378;6.736;2023-11-22T13:57:25;3.57;;;1.20;;
59998;SDS011;45859;51.378;6.736;2023-11-22T14:00:13;1.00;;;0.70;;
59998;SDS011;45859;51.378;6.736;2023-11-22T14:03:01;1.40;;;0.90;;
59998;SDS011;45859;51.378;6.736;2023-11-22T14:06:01;3.50;;;1.40;;
59998;SDS011;45859;51.378;6.736;2023-11-22T14:08:30;5.27;;;1.67;;
59998;SDS011;45859;51.378;6.736;2023-11-22T14:10:59;3.90;;;2.10;;
59998;SDS011;45859;51.378;6.736;2023-11-22T14:13:31;2.10;;;1.37;;
59998;SDS011;45859;51.378;6.736;2023-11-22T14:16:00;5.10;;;1.97;;
59998;SDS011;45859;51.378;6.736;2023-11-22T14:21:36;4.10;;;1.57;;
59998;SDS011;45859;51.378;6.736;2023-11-22T14:24:06;2.67;;;1.30;;
59998;SDS011;45859;51.378;6.736;2023-11-22T14:26:35;2.33;;;1.10;;
59998;SDS011;45859;51.378;6.736;2023-11-22T14:29:05;2.38;;;1.50;;
59998;SDS011;45859;51.378;6.736;2023-11-22T14:31:44;5.80;;;2.80;;
59998;SDS011;45859;51.378;6.736;2023-11-22T14:34:10;4.97;;;2.60;;
59998;SDS011;45859;51.378;6.736;2023-11-22T14:36:54;5.57;;;2.43;;
59998;SDS011;45859;51.378;6.736;2023-11-22T14:39:32;5.07;;;2.80;;
59998;SDS011;45859;51.378;6.736;2023-11-22T14:42:20;4.73;;;2.73;;
59998;SDS011;45859;51.378;6.736;2023-11-22T14:44:57;6.87;;;3.80;;
59998;SDS011;45859;51.378;6.736;2023-11-22T14:47:23;6.57;;;3.50;;
59998;SDS011;45859;51.378;6.736;2023-11-22T14:50:07;11.33;;;3.53;;
59998;SDS011;45859;51.378;6.736;2023-11-22T14:53:10;7.67;;;3.90;;
59998;SDS011;45859;51.378;6.736;2023-11-22T14:55:39;8.77;;;3.73;;
59998;SDS011;45859;51.378;6.736;2023-11-22T14:58:07;3.53;;;2.40;;
59998;SDS011;45859;51.378;6.736;2023-11-22T15:00:36;9.70;;;3.93;;
59998;SDS011;45859;51.378;6.736;2023-11-22T15:03:08;6.83;;;3.40;;
59998;SDS011;45859;51.378;6.736;2023-11-22T15:08:25;7.40;;;4.07;;
59998;SDS011;45859;51.378;6.736;2023-11-22T15:11:25;5.37;;;3.00;;
59998;SDS011;45859;51.378;6.736;2023-11-22T15:13:55;6.20;;;2.90;;
59998;SDS011;45859;51.378;6.736;2023-11-22T15:16:26;3.67;;;1.83;;
59998;SDS011;45859;51.378;6.736;2023-11-22T15:19:04;6.70;;;3.63;;
59998;SDS011;45859;51.378;6.736;2023-11-22T15:21:44;3.70;;;1.47;;
59998;SDS011;45859;51.378;6.736;2023-11-22T15:24:28;5.37;;;2.53;;
59998;SDS011;45859;51.378;6.736;2023-11-22T15:27:12;6.77;;;3.43;;
59998;SDS011;45859;51.378;6.736;2023-11-22T15:29:44;3.93;;;1.60;;
59998;SDS011;45859;51.378;6.736;2023-11-22T15:32:16;6.73;;;2.63;;
59998;SDS011;45859;51.378;6.736;2023-11-22T15:35:04;11.50;;;2.97;;
59998;SDS011;45859;51.378;6.736;2023-11-22T15:40:30;2.97;;;1.90;;
59998;SDS011;45859;51.378;6.736;2023-11-22T15:43:02;6.90;;;2.97;;
59998;SDS011;45859;51.378;6.736;2023-11-22T15:46:02;3.63;;;1.97;;
59998;SDS011;45859;51.378;6.736;2023-11-22T15:51:20;6.90;;;3.00;;
59998;SDS011;45859;51.378;6.736;2023-11-22T15:54:10;5.80;;;3.03;;
59998;SDS011;45859;51.378;6.736;2023-11-22T15:56:48;9.13;;;2.57;;
59998;SDS011;45859;51.378;6.736;2023-11-22T15:59:32;4.93;;;2.40;;
59998;SDS011;45859;51.378;6.736;2023-11-22T16:02:19;9.30;;;2.20;;
59998;SDS011;45859;51.378;6.736;2023-11-22T16:04:50;3.88;;;2.15;;
59998;SDS011;45859;51.378;6.736;2023-11-22T16:07:20;7.97;;;2.58;;